sensor_id;sensor_type;location;lat;lon;timestamp;temperature;humidity
9971;DHT22;5026;51.494;11.974;2023-12-22T00:00:14;4.50;99.90
9971;DHT22;5026;51.494;11.974;2023-12-22T00:02:41;4.50;99.90
9971;DHT22;5026;51.494;11.974;2023-12-22T00:05:08;4.50;99.90
9971;DHT22;5026;51.494;11.974;2023-12-22T00:07:36;4.50;99.90
9971;DHT22;5026;51.494;11.974;2023-12-22T00:10:04;4.50;99.90
9971;DHT22;5026;51.494;11.974;2023-12-22T00:12:31;4.50;99.90
9971;DHT22;5026;51.494;11.974;2023-12-22T00:14:58;4.60;99.90
9971;DHT22;5026;51.494;11.974;2023-12-22T00:17:25;4.70;99.90
9971;DHT22;5026;51.494;11.974;2023-12-22T00:19:52;4.80;99.90
9971;DHT22;5026;51.494;11.974;2023-12-22T00:22:20;4.90;99.90
9971;DHT22;5026;51.494;11.974;2023-12-22T00:24:49;4.90;99.90
9971;DHT22;5026;51.494;11.974;2023-12-22T00:27:16;4.90;99.90
9971;DHT22;5026;51.494;11.974;2023-12-22T00:29:43;4.90;99.90
9971;DHT22;5026;51.494;11.974;2023-12-22T00:32:10;4.90;99.90
9971;DHT22;5026;51.494;11.974;2023-12-22T00:34:37;4.90;99.90
9971;DHT22;5026;51.494;11.974;2023-12-22T00:37:04;4.90;99.90
9971;DHT22;5026;51.494;11.974;2023-12-22T00:39:31;4.80;99.90
9971;DHT22;5026;51.494;11.974;2023-12-22T00:41:59;4.70;99.90
9971;DHT22;5026;51.494;11.974;2023-12-22T00:44:26;4.70;99.90
9971;DHT22;5026;51.494;11.974;2023-12-22T00:46:55;4.70;99.90
9971;DHT22;5026;51.494;11.974;2023-12-22T00:49:22;4.80;99.90
9971;DHT22;5026;51.494;11.974;2023-12-22T00:51:49;4.90;99.90
9971;DHT22;5026;51.494;11.974;2023-12-22T00:54:16;5.10;99.90
9971;DHT22;5026;51.494;11.974;2023-12-22T00:56:43;5.20;99.90
9971;DHT22;5026;51.494;11.974;2023-12-22T00:59:11;5.20;99.90
9971;DHT22;5026;51.494;11.974;2023-12-22T01:01:38;5.20;99.90
9971;DHT22;5026;51.494;11.974;2023-12-22T01:04:05;5.20;99.90
9971;DHT22;5026;51.494;11.974;2023-12-22T01:06:37;5.30;99.90
9971;DHT22;5026;51.494;11.974;2023-12-22T01:09:04;5.20;99.90
9971;DHT22;5026;51.494;11.974;2023-12-22T01:11:31;5.30;99.90
9971;DHT22;5026;51.494;11.974;2023-12-22T01:13:58;5.30;99.90
9971;DHT22;5026;51.494;11.974;2023-12-22T01:16:26;5.20;99.90
9971;DHT22;5026;51.494;11.974;2023-12-22T01:18:53;5.30;99.90
9971;DHT22;5026;51.494;11.974;2023-12-22T01:21:20;5.30;99.90
9971;DHT22;5026;51.494;11.974;2023-12-22T01:23:47;5.30;99.90
9971;DHT22;5026;51.494;11.974;2023-12-22T01:26:14;5.20;99.90
9971;DHT22;5026;51.494;11.974;2023-12-22T01:28:41;5.20;99.90
9971;DHT22;5026;51.494;11.974;2023-12-22T01:31:08;5.30;99.90
9971;DHT22;5026;51.494;11.974;2023-12-22T01:33:36;5.20;99.90
9971;DHT22;5026;51.494;11.974;2023-12-22T01:36:04;5.20;99.90
9971;DHT22;5026;51.494;11.974;2023-12-22T01:38:31;5.20;99.90
9971;DHT22;5026;51.494;11.974;2023-12-22T01:40:58;5.20;99.90
9971;DHT22;5026;51.494;11.974;2023-12-22T01:43:25;5.10;99.90
9971;DHT22;5026;51.494;11.974;2023-12-22T01:45:55;5.20;99.90
9971;DHT22;5026;51.494;11.974;2023-12-22T01:48:23;5.20;99.90
9971;DHT22;5026;51.494;11.974;2023-12-22T01:50:52;5.10;99.90
9971;DHT22;5026;51.494;11.974;2023-12-22T01:53:20;5.10;99.90
9971;DHT22;5026;51.494;11.974;2023-12-22T01:55:48;4.90;99.90
9971;DHT22;5026;51.494;11.974;2023-12-22T01:58:17;4.80;99.90
9971;DHT22;5026;51.494;11.974;2023-12-22T02:00:44;4.70;99.90
9971;DHT22;5026;51.494;11.974;2023-12-22T02:03:11;4.70;99.90
9971;DHT22;5026;51.494;11.974;2023-12-22T02:05:40;4.80;99.90
9971;DHT22;5026;51.494;11.974;2023-12-22T02:08:09;4.80;99.90
9971;DHT22;5026;51.494;11.974;2023-12-22T02:10:36;4.70;99.90
9971;DHT22;5026;51.494;11.974;2023-12-22T02:13:04;4.70;99.90
9971;DHT22;5026;51.494;11.974;2023-12-22T02:15:31;4.60;99.90
9971;DHT22;5026;51.494;11.974;2023-12-22T02:18:02;4.50;99.90
9971;DHT22;5026;51.494;11.974;2023-12-22T02:20:32;4.50;99.90
9971;DHT22;5026;51.494;11.974;2023-12-22T02:23:01;4.40;99.90
9971;DHT22;5026;51.494;11.974;2023-12-22T02:25:29;4.40;99.90
9971;DHT22;5026;51.494;11.974;2023-12-22T02:28:01;4.30;99.90
9971;DHT22;5026;51.494;11.974;2023-12-22T02:30:33;4.20;99.90
9971;DHT22;5026;51.494;11.974;2023-12-22T02:33:04;4.20;99.90
9971;DHT22;5026;51.494;11.974;2023-12-22T02:35:37;4.20;99.90
9971;DHT22;5026;51.494;11.974;2023-12-22T02:38:08;4.20;99.90
9971;DHT22;5026;51.494;11.974;2023-12-22T02:40:36;4.20;99.90
9971;DHT22;5026;51.494;11.974;2023-12-22T02:43:05;4.20;99.90
9971;DHT22;5026;51.494;11.974;2023-12-22T02:45:33;4.20;99.90
9971;DHT22;5026;51.494;11.974;2023-12-22T02:48:00;4.30;99.90
9971;DHT22;5026;51.494;11.974;2023-12-22T02:50:27;4.50;99.90
9971;DHT22;5026;51.494;11.974;2023-12-22T02:52:54;4.50;99.90
9971;DHT22;5026;51.494;11.974;2023-12-22T02:55:22;4.60;99.90
9971;DHT22;5026;51.494;11.974;2023-12-22T02:57:49;4.60;99.90
9971;DHT22;5026;51.494;11.974;2023-12-22T03:00:16;4.70;99.90
9971;DHT22;5026;51.494;11.974;2023-12-22T03:02:43;4.60;99.90
9971;DHT22;5026;51.494;11.974;2023-12-22T03:05:10;4.50;99.90
9971;DHT22;5026;51.494;11.974;2023-12-22T03:07:37;4.40;99.90
9971;DHT22;5026;51.494;11.974;2023-12-22T03:10:05;4.40;99.90
9971;DHT22;5026;51.494;11.974;2023-12-22T03:12:33;4.30;99.90
9971;DHT22;5026;51.494;11.974;2023-12-22T03:15:00;4.20;99.90
9971;DHT22;5026;51.494;11.974;2023-12-22T03:17:27;4.20;99.90
9971;DHT22;5026;51.494;11.974;2023-12-22T03:19:54;4.10;99.90
9971;DHT22;5026;51.494;11.974;2023-12-22T03:22:21;4.20;99.90
9971;DHT22;5026;51.494;11.974;2023-12-22T03:24:48;4.30;99.90
9971;DHT22;5026;51.494;11.974;2023-12-22T03:27:15;4.30;99.90
9971;DHT22;5026;51.494;11.974;2023-12-22T03:29:45;4.40;99.90
9971;DHT22;5026;51.494;11.974;2023-12-22T03:32:12;4.40;99.90
9971;DHT22;5026;51.494;11.974;2023-12-22T03:34:39;4.40;99.90
9971;DHT22;5026;51.494;11.974;2023-12-22T03:37:06;4.50;99.90
9971;DHT22;5026;51.494;11.974;2023-12-22T03:39:33;4.40;99.90
9971;DHT22;5026;51.494;11.974;2023-12-22T03:42:00;4.50;99.90
9971;DHT22;5026;51.494;11.974;2023-12-22T03:44:27;4.50;99.90
9971;DHT22;5026;51.494;11.974;2023-12-22T03:46:56;4.50;99.90
9971;DHT22;5026;51.494;11.974;2023-12-22T03:49:23;4.50;99.90
9971;DHT22;5026;51.494;11.974;2023-12-22T03:51:50;4.50;99.90
9971;DHT22;5026;51.494;11.974;2023-12-22T03:54:16;4.50;99.90
9971;DHT22;5026;51.494;11.974;2023-12-22T03:56:43;4.60;99.90
9971;DHT22;5026;51.494;11.974;2023-12-22T03:59:10;4.50;99.90
9971;DHT22;5026;51.494;11.974;2023-12-22T04:01:38;4.60;99.90
9971;DHT22;5026;51.494;11.974;2023-12-22T04:04:06;4.50;99.90
9971;DHT22;5026;51.494;11.974;2023-12-22T04:06:33;4.60;99.90
9971;DHT22;5026;51.494;11.974;2023-12-22T04:09:04;4.60;99.90
9971;DHT22;5026;51.494;11.974;2023-12-22T04:11:31;4.60;99.90
9971;DHT22;5026;51.494;11.974;2023-12-22T04:14:00;4.50;99.90
9971;DHT22;5026;51.494;11.974;2023-12-22T04:16:27;4.50;99.90
9971;DHT22;5026;51.494;11.974;2023-12-22T04:18:54;4.50;99.90
9971;DHT22;5026;51.494;11.974;2023-12-22T04:21:22;4.60;99.90
9971;DHT22;5026;51.494;11.974;2023-12-22T04:23:49;4.50;99.90
9971;DHT22;5026;51.494;11.974;2023-12-22T04:26:16;4.50;99.90
9971;DHT22;5026;51.494;11.974;2023-12-22T04:28:43;4.50;99.90
9971;DHT22;5026;51.494;11.974;2023-12-22T04:31:10;4.40;99.90
9971;DHT22;5026;51.494;11.974;2023-12-22T04:33:37;4.40;99.90
9971;DHT22;5026;51.494;11.974;2023-12-22T04:36:04;4.40;99.90
9971;DHT22;5026;51.494;11.974;2023-12-22T04:38:32;4.40;99.90
9971;DHT22;5026;51.494;11.974;2023-12-22T04:40:59;4.40;99.90
9971;DHT22;5026;51.494;11.974;2023-12-22T04:43:26;4.40;99.90
9971;DHT22;5026;51.494;11.974;2023-12-22T04:45:53;4.40;99.90
9971;DHT22;5026;51.494;11.974;2023-12-22T04:48:22;4.40;99.90
9971;DHT22;5026;51.494;11.974;2023-12-22T04:50:49;4.30;99.90
9971;DHT22;5026;51.494;11.974;2023-12-22T04:53:15;4.20;99.90
9971;DHT22;5026;51.494;11.974;2023-12-22T04:55:44;4.20;99.90
9971;DHT22;5026;51.494;11.974;2023-12-22T04:58:11;4.20;99.90
9971;DHT22;5026;51.494;11.974;2023-12-22T05:00:37;4.20;99.90
9971;DHT22;5026;51.494;11.974;2023-12-22T05:03:04;4.30;99.90
9971;DHT22;5026;51.494;11.974;2023-12-22T05:05:31;4.30;99.90
9971;DHT22;5026;51.494;11.974;2023-12-22T05:07:58;4.20;99.90
9971;DHT22;5026;51.494;11.974;2023-12-22T05:10:25;4.20;99.90
9971;DHT22;5026;51.494;11.974;2023-12-22T05:12:53;4.10;99.90
9971;DHT22;5026;51.494;11.974;2023-12-22T05:15:20;4.10;99.90
9971;DHT22;5026;51.494;11.974;2023-12-22T05:17:46;4.10;99.90
9971;DHT22;5026;51.494;11.974;2023-12-22T05:20:13;4.10;99.90
9971;DHT22;5026;51.494;11.974;2023-12-22T05:22:42;4.10;99.90
9971;DHT22;5026;51.494;11.974;2023-12-22T05:25:13;4.10;99.90
9971;DHT22;5026;51.494;11.974;2023-12-22T05:27:48;4.10;99.90
9971;DHT22;5026;51.494;11.974;2023-12-22T05:30:22;3.90;99.90
9971;DHT22;5026;51.494;11.974;2023-12-22T05:32:52;4.00;99.90
9971;DHT22;5026;51.494;11.974;2023-12-22T05:35:20;4.50;99.90
9971;DHT22;5026;51.494;11.974;2023-12-22T05:37:47;4.20;99.90
9971;DHT22;5026;51.494;11.974;2023-12-22T05:40:15;4.20;99.90
9971;DHT22;5026;51.494;11.974;2023-12-22T05:42:42;4.30;99.90
9971;DHT22;5026;51.494;11.974;2023-12-22T05:45:09;4.40;99.90
9971;DHT22;5026;51.494;11.974;2023-12-22T05:47:38;4.40;99.90
9971;DHT22;5026;51.494;11.974;2023-12-22T05:50:06;4.50;99.90
9971;DHT22;5026;51.494;11.974;2023-12-22T05:52:33;4.40;99.90
9971;DHT22;5026;51.494;11.974;2023-12-22T05:55:00;4.40;99.90
9971;DHT22;5026;51.494;11.974;2023-12-22T05:57:27;4.40;99.90
9971;DHT22;5026;51.494;11.974;2023-12-22T05:59:53;4.50;99.90
9971;DHT22;5026;51.494;11.974;2023-12-22T06:02:20;4.50;99.90
9971;DHT22;5026;51.494;11.974;2023-12-22T06:04:49;4.50;99.90
9971;DHT22;5026;51.494;11.974;2023-12-22T06:07:16;4.60;99.90
9971;DHT22;5026;51.494;11.974;2023-12-22T06:09:42;4.70;99.90
9971;DHT22;5026;51.494;11.974;2023-12-22T06:12:10;4.70;99.90
9971;DHT22;5026;51.494;11.974;2023-12-22T06:14:37;4.70;99.90
9971;DHT22;5026;51.494;11.974;2023-12-22T06:17:04;4.60;99.90
9971;DHT22;5026;51.494;11.974;2023-12-22T06:19:30;4.50;99.90
9971;DHT22;5026;51.494;11.974;2023-12-22T06:21:59;4.40;99.90
9971;DHT22;5026;51.494;11.974;2023-12-22T06:24:26;4.30;99.90
9971;DHT22;5026;51.494;11.974;2023-12-22T06:26:53;4.30;99.90
9971;DHT22;5026;51.494;11.974;2023-12-22T06:29:19;4.20;99.90
9971;DHT22;5026;51.494;11.974;2023-12-22T06:31:46;4.20;99.90
9971;DHT22;5026;51.494;11.974;2023-12-22T06:34:16;4.10;99.90
9971;DHT22;5026;51.494;11.974;2023-12-22T06:36:43;4.10;99.90
9971;DHT22;5026;51.494;11.974;2023-12-22T06:39:11;4.10;99.90
9971;DHT22;5026;51.494;11.974;2023-12-22T06:41:38;4.00;99.90
9971;DHT22;5026;51.494;11.974;2023-12-22T06:44:05;4.00;99.90
9971;DHT22;5026;51.494;11.974;2023-12-22T06:46:32;4.00;99.90
9971;DHT22;5026;51.494;11.974;2023-12-22T06:48:59;4.10;99.90
9971;DHT22;5026;51.494;11.974;2023-12-22T06:51:27;4.10;99.90
9971;DHT22;5026;51.494;11.974;2023-12-22T06:53:56;4.10;99.90
9971;DHT22;5026;51.494;11.974;2023-12-22T06:56:28;4.10;99.90
9971;DHT22;5026;51.494;11.974;2023-12-22T06:58:56;4.10;99.90
9971;DHT22;5026;51.494;11.974;2023-12-22T07:01:26;4.20;99.90
9971;DHT22;5026;51.494;11.974;2023-12-22T07:03:53;4.20;99.90
9971;DHT22;5026;51.494;11.974;2023-12-22T07:06:22;4.20;99.90
9971;DHT22;5026;51.494;11.974;2023-12-22T07:11:55;4.20;99.90
9971;DHT22;5026;51.494;11.974;2023-12-22T07:14:22;4.30;99.90
9971;DHT22;5026;51.494;11.974;2023-12-22T07:16:49;4.30;99.90
9971;DHT22;5026;51.494;11.974;2023-12-22T07:19:17;4.30;99.90
9971;DHT22;5026;51.494;11.974;2023-12-22T07:21:48;4.30;99.90
9971;DHT22;5026;51.494;11.974;2023-12-22T07:24:15;4.30;99.90
9971;DHT22;5026;51.494;11.974;2023-12-22T07:26:42;4.60;99.90
9971;DHT22;5026;51.494;11.974;2023-12-22T07:29:11;4.40;99.90
9971;DHT22;5026;51.494;11.974;2023-12-22T07:31:38;4.30;99.90
9971;DHT22;5026;51.494;11.974;2023-12-22T07:34:05;4.30;99.90
9971;DHT22;5026;51.494;11.974;2023-12-22T07:36:32;4.30;99.90
9971;DHT22;5026;51.494;11.974;2023-12-22T07:38:59;4.40;99.90
9971;DHT22;5026;51.494;11.974;2023-12-22T07:41:26;4.50;99.90
9971;DHT22;5026;51.494;11.974;2023-12-22T07:43:53;4.50;99.90
9971;DHT22;5026;51.494;11.974;2023-12-22T07:46:22;4.50;99.90
9971;DHT22;5026;51.494;11.974;2023-12-22T07:48:49;4.60;99.90
9971;DHT22;5026;51.494;11.974;2023-12-22T07:51:16;4.60;99.90
9971;DHT22;5026;51.494;11.974;2023-12-22T07:53:43;4.80;99.90
9971;DHT22;5026;51.494;11.974;2023-12-22T07:56:10;4.80;99.90
9971;DHT22;5026;51.494;11.974;2023-12-22T07:58:37;4.80;99.90
9971;DHT22;5026;51.494;11.974;2023-12-22T08:01:04;4.70;99.90
9971;DHT22;5026;51.494;11.974;2023-12-22T08:03:33;4.40;99.90
9971;DHT22;5026;51.494;11.974;2023-12-22T08:06:00;4.30;99.90
9971;DHT22;5026;51.494;11.974;2023-12-22T08:08:27;4.30;99.90
9971;DHT22;5026;51.494;11.974;2023-12-22T08:10:53;4.20;99.90
9971;DHT22;5026;51.494;11.974;2023-12-22T08:13:20;4.30;99.90
9971;DHT22;5026;51.494;11.974;2023-12-22T08:15:47;4.30;99.90
9971;DHT22;5026;51.494;11.974;2023-12-22T08:18:14;4.30;99.90
9971;DHT22;5026;51.494;11.974;2023-12-22T08:20:42;4.40;99.90
9971;DHT22;5026;51.494;11.974;2023-12-22T08:23:09;4.50;99.90
9971;DHT22;5026;51.494;11.974;2023-12-22T08:25:37;4.60;99.90
9971;DHT22;5026;51.494;11.974;2023-12-22T08:28:06;4.60;99.90
9971;DHT22;5026;51.494;11.974;2023-12-22T08:30:33;4.60;99.90
9971;DHT22;5026;51.494;11.974;2023-12-22T08:33:00;4.70;99.90
9971;DHT22;5026;51.494;11.974;2023-12-22T08:35:27;4.70;99.90
9971;DHT22;5026;51.494;11.974;2023-12-22T08:37:56;4.70;99.90
9971;DHT22;5026;51.494;11.974;2023-12-22T08:40:23;4.80;99.90
9971;DHT22;5026;51.494;11.974;2023-12-22T08:42:51;4.80;99.90
9971;DHT22;5026;51.494;11.974;2023-12-22T08:45:25;4.80;99.90
9971;DHT22;5026;51.494;11.974;2023-12-22T08:47:54;4.70;99.90
9971;DHT22;5026;51.494;11.974;2023-12-22T08:50:20;4.70;99.90
9971;DHT22;5026;51.494;11.974;2023-12-22T08:52:47;4.60;99.90
9971;DHT22;5026;51.494;11.974;2023-12-22T08:55:16;4.50;99.90
9971;DHT22;5026;51.494;11.974;2023-12-22T08:57:43;4.40;99.90
9971;DHT22;5026;51.494;11.974;2023-12-22T09:00:11;4.30;99.90
9971;DHT22;5026;51.494;11.974;2023-12-22T09:02:38;4.20;99.90
9971;DHT22;5026;51.494;11.974;2023-12-22T09:05:05;4.10;99.90
9971;DHT22;5026;51.494;11.974;2023-12-22T09:07:33;3.90;99.90
9971;DHT22;5026;51.494;11.974;2023-12-22T09:10:00;3.90;99.90
9971;DHT22;5026;51.494;11.974;2023-12-22T09:12:28;3.90;99.90
9971;DHT22;5026;51.494;11.974;2023-12-22T09:14:55;3.90;99.90
9971;DHT22;5026;51.494;11.974;2023-12-22T09:17:26;3.90;99.90
9971;DHT22;5026;51.494;11.974;2023-12-22T09:19:53;4.00;99.90
9971;DHT22;5026;51.494;11.974;2023-12-22T09:22:20;4.00;99.90
9971;DHT22;5026;51.494;11.974;2023-12-22T09:24:48;4.10;99.90
9971;DHT22;5026;51.494;11.974;2023-12-22T09:27:15;4.00;99.90
9971;DHT22;5026;51.494;11.974;2023-12-22T09:29:43;4.00;99.90
9971;DHT22;5026;51.494;11.974;2023-12-22T09:32:10;4.00;99.90
9971;DHT22;5026;51.494;11.974;2023-12-22T09:34:37;3.80;99.90
9971;DHT22;5026;51.494;11.974;2023-12-22T09:37:04;3.80;99.90
9971;DHT22;5026;51.494;11.974;2023-12-22T09:39:31;3.70;99.90
9971;DHT22;5026;51.494;11.974;2023-12-22T09:41:58;3.70;99.90
9971;DHT22;5026;51.494;11.974;2023-12-22T09:44:30;3.70;99.90
9971;DHT22;5026;51.494;11.974;2023-12-22T09:46:59;3.90;99.90
9971;DHT22;5026;51.494;11.974;2023-12-22T09:49:30;3.90;99.90
9971;DHT22;5026;51.494;11.974;2023-12-22T09:51:57;3.80;99.90
9971;DHT22;5026;51.494;11.974;2023-12-22T09:54:25;3.70;99.90
9971;DHT22;5026;51.494;11.974;2023-12-22T09:56:53;3.70;99.90
9971;DHT22;5026;51.494;11.974;2023-12-22T09:59:21;3.80;99.90
9971;DHT22;5026;51.494;11.974;2023-12-22T10:01:50;4.00;99.90
9971;DHT22;5026;51.494;11.974;2023-12-22T10:04:21;4.10;99.90
9971;DHT22;5026;51.494;11.974;2023-12-22T10:06:48;4.00;99.90
9971;DHT22;5026;51.494;11.974;2023-12-22T10:09:17;4.10;99.90
9971;DHT22;5026;51.494;11.974;2023-12-22T10:11:44;4.20;99.90
9971;DHT22;5026;51.494;11.974;2023-12-22T10:14:13;4.30;99.90
9971;DHT22;5026;51.494;11.974;2023-12-22T10:16:48;4.40;99.90
9971;DHT22;5026;51.494;11.974;2023-12-22T10:19:15;4.70;99.90
9971;DHT22;5026;51.494;11.974;2023-12-22T10:21:43;5.00;99.90
9971;DHT22;5026;51.494;11.974;2023-12-22T10:24:38;5.20;99.90
9971;DHT22;5026;51.494;11.974;2023-12-22T10:27:05;5.30;99.90
9971;DHT22;5026;51.494;11.974;2023-12-22T10:29:32;5.20;99.90
9971;DHT22;5026;51.494;11.974;2023-12-22T10:32:00;5.10;99.90
9971;DHT22;5026;51.494;11.974;2023-12-22T10:34:28;5.20;99.90
9971;DHT22;5026;51.494;11.974;2023-12-22T10:36:56;5.40;99.90
9971;DHT22;5026;51.494;11.974;2023-12-22T10:39:27;5.70;99.90
9971;DHT22;5026;51.494;11.974;2023-12-22T10:41:54;5.90;99.90
9971;DHT22;5026;51.494;11.974;2023-12-22T10:44:24;6.00;99.90
9971;DHT22;5026;51.494;11.974;2023-12-22T10:46:51;6.00;99.90
9971;DHT22;5026;51.494;11.974;2023-12-22T10:49:19;6.10;99.90
9971;DHT22;5026;51.494;11.974;2023-12-22T10:51:46;6.10;99.90
9971;DHT22;5026;51.494;11.974;2023-12-22T10:54:15;6.20;99.90
9971;DHT22;5026;51.494;11.974;2023-12-22T10:56:42;6.30;99.90
9971;DHT22;5026;51.494;11.974;2023-12-22T10:59:09;6.40;99.90
9971;DHT22;5026;51.494;11.974;2023-12-22T11:01:37;6.40;99.90
9971;DHT22;5026;51.494;11.974;2023-12-22T11:04:06;6.60;99.90
9971;DHT22;5026;51.494;11.974;2023-12-22T11:06:35;6.80;99.90
9971;DHT22;5026;51.494;11.974;2023-12-22T11:09:07;7.00;99.90
9971;DHT22;5026;51.494;11.974;2023-12-22T11:11:36;7.10;99.90
9971;DHT22;5026;51.494;11.974;2023-12-22T11:14:04;7.30;99.90
9971;DHT22;5026;51.494;11.974;2023-12-22T11:16:32;7.50;99.90
9971;DHT22;5026;51.494;11.974;2023-12-22T11:19:00;7.70;99.90
9971;DHT22;5026;51.494;11.974;2023-12-22T11:21:28;7.90;99.90
9971;DHT22;5026;51.494;11.974;2023-12-22T11:23:56;7.90;99.90
9971;DHT22;5026;51.494;11.974;2023-12-22T11:26:24;7.80;99.90
9971;DHT22;5026;51.494;11.974;2023-12-22T11:28:53;7.70;99.90
9971;DHT22;5026;51.494;11.974;2023-12-22T11:31:20;7.70;99.90
9971;DHT22;5026;51.494;11.974;2023-12-22T11:33:48;7.60;99.90
9971;DHT22;5026;51.494;11.974;2023-12-22T11:36:17;7.50;99.90
9971;DHT22;5026;51.494;11.974;2023-12-22T11:38:45;7.50;99.90
9971;DHT22;5026;51.494;11.974;2023-12-22T11:41:17;7.30;99.90
9971;DHT22;5026;51.494;11.974;2023-12-22T11:43:45;7.20;99.90
9971;DHT22;5026;51.494;11.974;2023-12-22T11:46:16;7.30;99.90
9971;DHT22;5026;51.494;11.974;2023-12-22T11:48:47;7.30;99.90
9971;DHT22;5026;51.494;11.974;2023-12-22T11:51:15;7.40;99.90
9971;DHT22;5026;51.494;11.974;2023-12-22T11:53:43;7.30;99.90
9971;DHT22;5026;51.494;11.974;2023-12-22T11:56:11;7.20;99.90
9971;DHT22;5026;51.494;11.974;2023-12-22T11:58:44;7.20;99.90
9971;DHT22;5026;51.494;11.974;2023-12-22T12:01:19;7.10;99.90
9971;DHT22;5026;51.494;11.974;2023-12-22T12:03:49;6.90;99.90
9971;DHT22;5026;51.494;11.974;2023-12-22T12:06:25;6.90;99.90
9971;DHT22;5026;51.494;11.974;2023-12-22T12:08:57;6.80;99.90
9971;DHT22;5026;51.494;11.974;2023-12-22T12:14:31;6.70;99.90
9971;DHT22;5026;51.494;11.974;2023-12-22T12:17:05;6.60;99.90
9971;DHT22;5026;51.494;11.974;2023-12-22T12:19:34;6.60;99.90
9971;DHT22;5026;51.494;11.974;2023-12-22T12:22:03;6.60;99.90
9971;DHT22;5026;51.494;11.974;2023-12-22T12:24:30;6.50;99.90
9971;DHT22;5026;51.494;11.974;2023-12-22T12:26:58;6.30;99.90
9971;DHT22;5026;51.494;11.974;2023-12-22T12:29:25;6.30;99.90
9971;DHT22;5026;51.494;11.974;2023-12-22T12:31:52;6.40;99.90
9971;DHT22;5026;51.494;11.974;2023-12-22T12:34:23;6.10;99.90
9971;DHT22;5026;51.494;11.974;2023-12-22T12:36:50;6.20;99.90
9971;DHT22;5026;51.494;11.974;2023-12-22T12:39:22;6.10;99.90
9971;DHT22;5026;51.494;11.974;2023-12-22T12:41:54;6.00;99.90
9971;DHT22;5026;51.494;11.974;2023-12-22T12:44:22;6.00;99.90
9971;DHT22;5026;51.494;11.974;2023-12-22T12:46:50;6.00;99.90
9971;DHT22;5026;51.494;11.974;2023-12-22T12:49:20;6.00;99.90
9971;DHT22;5026;51.494;11.974;2023-12-22T12:51:52;6.00;99.90
9971;DHT22;5026;51.494;11.974;2023-12-22T12:54:19;6.00;99.90
9971;DHT22;5026;51.494;11.974;2023-12-22T12:56:47;6.10;99.90
9971;DHT22;5026;51.494;11.974;2023-12-22T12:59:15;6.10;99.90
9971;DHT22;5026;51.494;11.974;2023-12-22T13:01:46;6.00;99.90
9971;DHT22;5026;51.494;11.974;2023-12-22T13:04:13;5.90;99.90
9971;DHT22;5026;51.494;11.974;2023-12-22T13:06:45;5.90;99.90
9971;DHT22;5026;51.494;11.974;2023-12-22T13:09:13;5.90;99.90
9971;DHT22;5026;51.494;11.974;2023-12-22T13:11:40;5.90;99.90
9971;DHT22;5026;51.494;11.974;2023-12-22T13:14:08;5.90;99.90
9971;DHT22;5026;51.494;11.974;2023-12-22T13:16:36;5.80;99.90
9971;DHT22;5026;51.494;11.974;2023-12-22T13:19:03;5.80;99.90
9971;DHT22;5026;51.494;11.974;2023-12-22T13:21:30;5.80;99.90
9971;DHT22;5026;51.494;11.974;2023-12-22T13:24:13;5.70;99.90
9971;DHT22;5026;51.494;11.974;2023-12-22T13:26:41;5.70;99.90
9971;DHT22;5026;51.494;11.974;2023-12-22T13:29:10;5.80;99.90
9971;DHT22;5026;51.494;11.974;2023-12-22T13:31:38;5.80;99.90
9971;DHT22;5026;51.494;11.974;2023-12-22T13:34:08;5.90;99.90
9971;DHT22;5026;51.494;11.974;2023-12-22T13:36:36;5.80;99.90
9971;DHT22;5026;51.494;11.974;2023-12-22T13:39:03;5.80;99.90
9971;DHT22;5026;51.494;11.974;2023-12-22T13:41:33;5.90;99.90
9971;DHT22;5026;51.494;11.974;2023-12-22T13:44:04;5.80;99.90
9971;DHT22;5026;51.494;11.974;2023-12-22T13:46:32;5.80;99.90
9971;DHT22;5026;51.494;11.974;2023-12-22T13:49:01;5.80;99.90
9971;DHT22;5026;51.494;11.974;2023-12-22T13:51:38;5.80;99.90
9971;DHT22;5026;51.494;11.974;2023-12-22T13:54:05;5.80;99.90
9971;DHT22;5026;51.494;11.974;2023-12-22T13:56:34;5.80;99.90
9971;DHT22;5026;51.494;11.974;2023-12-22T13:59:02;5.70;99.90
9971;DHT22;5026;51.494;11.974;2023-12-22T14:01:29;5.80;99.90
9971;DHT22;5026;51.494;11.974;2023-12-22T14:03:56;5.80;99.90
9971;DHT22;5026;51.494;11.974;2023-12-22T14:06:24;5.80;99.90
9971;DHT22;5026;51.494;11.974;2023-12-22T14:08:51;5.80;99.90
9971;DHT22;5026;51.494;11.974;2023-12-22T14:11:19;5.80;99.90
9971;DHT22;5026;51.494;11.974;2023-12-22T14:13:48;5.80;99.90
9971;DHT22;5026;51.494;11.974;2023-12-22T14:16:15;5.90;99.90
9971;DHT22;5026;51.494;11.974;2023-12-22T14:18:42;5.90;99.90
9971;DHT22;5026;51.494;11.974;2023-12-22T14:21:10;5.90;99.90
9971;DHT22;5026;51.494;11.974;2023-12-22T14:23:37;5.80;99.90
9971;DHT22;5026;51.494;11.974;2023-12-22T14:26:04;5.80;99.90
9971;DHT22;5026;51.494;11.974;2023-12-22T14:28:31;5.80;99.90
9971;DHT22;5026;51.494;11.974;2023-12-22T14:30:59;5.80;99.90
9971;DHT22;5026;51.494;11.974;2023-12-22T14:33:26;5.70;99.90
9971;DHT22;5026;51.494;11.974;2023-12-22T14:35:53;5.80;99.90
9971;DHT22;5026;51.494;11.974;2023-12-22T14:38:20;5.80;99.90
9971;DHT22;5026;51.494;11.974;2023-12-22T14:40:47;5.80;99.90
9971;DHT22;5026;51.494;11.974;2023-12-22T14:43:14;5.70;99.90
9971;DHT22;5026;51.494;11.974;2023-12-22T14:45:42;5.70;99.90
9971;DHT22;5026;51.494;11.974;2023-12-22T14:48:10;5.70;99.90
9971;DHT22;5026;51.494;11.974;2023-12-22T14:50:37;5.70;99.90
9971;DHT22;5026;51.494;11.974;2023-12-22T14:53:04;5.70;99.90
9971;DHT22;5026;51.494;11.974;2023-12-22T14:55:32;5.80;99.90
9971;DHT22;5026;51.494;11.974;2023-12-22T14:57:59;5.70;99.90
9971;DHT22;5026;51.494;11.974;2023-12-22T15:00:26;5.70;99.90
9971;DHT22;5026;51.494;11.974;2023-12-22T15:02:53;5.60;99.90
9971;DHT22;5026;51.494;11.974;2023-12-22T15:05:21;5.60;99.90
9971;DHT22;5026;51.494;11.974;2023-12-22T15:07:49;5.60;99.90
9971;DHT22;5026;51.494;11.974;2023-12-22T15:10:17;5.60;99.90
9971;DHT22;5026;51.494;11.974;2023-12-22T15:12:44;5.70;99.90
9971;DHT22;5026;51.494;11.974;2023-12-22T15:15:11;5.70;99.90
9971;DHT22;5026;51.494;11.974;2023-12-22T15:17:38;6.00;99.90
9971;DHT22;5026;51.494;11.974;2023-12-22T15:20:06;5.70;99.90
9971;DHT22;5026;51.494;11.974;2023-12-22T15:22:35;5.70;99.90
9971;DHT22;5026;51.494;11.974;2023-12-22T15:25:02;7.10;99.90
9971;DHT22;5026;51.494;11.974;2023-12-22T15:27:29;5.70;99.90
9971;DHT22;5026;51.494;11.974;2023-12-22T15:29:58;6.40;99.90
9971;DHT22;5026;51.494;11.974;2023-12-22T15:32:25;5.70;99.90
9971;DHT22;5026;51.494;11.974;2023-12-22T15:34:52;5.70;99.90
9971;DHT22;5026;51.494;11.974;2023-12-22T15:37:19;5.70;99.90
9971;DHT22;5026;51.494;11.974;2023-12-22T15:39:47;5.70;99.90
9971;DHT22;5026;51.494;11.974;2023-12-22T15:42:14;5.60;99.90
9971;DHT22;5026;51.494;11.974;2023-12-22T15:44:41;5.70;99.90
9971;DHT22;5026;51.494;11.974;2023-12-22T15:47:08;5.60;99.90
9971;DHT22;5026;51.494;11.974;2023-12-22T15:49:37;5.60;99.90
9971;DHT22;5026;51.494;11.974;2023-12-22T15:52:05;5.60;99.90
9971;DHT22;5026;51.494;11.974;2023-12-22T15:54:33;5.70;99.90
9971;DHT22;5026;51.494;11.974;2023-12-22T15:57:02;5.60;99.90
9971;DHT22;5026;51.494;11.974;2023-12-22T15:59:29;5.60;99.90
9971;DHT22;5026;51.494;11.974;2023-12-22T16:01:56;5.70;99.90
9971;DHT22;5026;51.494;11.974;2023-12-22T16:04:23;5.60;99.90
9971;DHT22;5026;51.494;11.974;2023-12-22T16:06:50;5.70;99.90
9971;DHT22;5026;51.494;11.974;2023-12-22T16:09:17;5.70;99.90
9971;DHT22;5026;51.494;11.974;2023-12-22T16:11:44;5.80;99.90